Lena — V2FR — position and weather

sailwx.info

Track history (hours):
 
Tides and Currents Weather Stations Pressure Air Temp Water Temp Dewpoint Dewpoint Depression Visibility Wind Speed Wind Dir Waves Ship Positions

Lena

Last reported at 2016-Sep-28 21:33 UTC. Time now 2016-Sep-28 23:57 UTC.
Position N 51°20' E 002°36'.

Length 152 m; draft 5.7 m.

Type: Ship. MMSI: 304080808.

Date/timePositionNaut miles runAvg speedWind from/ knotsBaromVisibWave heightAir tempDewpointWater temp
2016-Sep-28 21:33N 51°20' E 002°36'7 3.7
2016-Sep-28 19:33N 51°22' E 002°48'3511.3
2016-Sep-28 16:28N 51°28' E 003°43'0 0.0
2016-Sep-28 15:31N 51°28' E 003°43'0 0.0
2016-Sep-28 12:33N 51°28' E 003°43'0 0.0
2016-Sep-28 08:31N 51°28' E 003°43'0 0.0
2016-Sep-28 03:23N 51°28' E 003°43'0 0.0
2016-Sep-28 02:28N 51°28' E 003°43'0 0.0
2016-Sep-28 01:22N 51°28' E 003°43'0 0.0
2016-Sep-27 23:33N 51°28' E 003°43'0 0.0
2016-Sep-27 19:31N 51°28' E 003°43'0 0.0
2016-Sep-27 14:32N 51°28' E 003°43'0 0.0
2016-Sep-27 13:32N 51°28' E 003°43'0 0.0
2016-Sep-27 10:33N 51°28' E 003°43'0 0.0
2016-Sep-27 00:29N 51°28' E 003°43'0 0.0
2016-Sep-26 20:33N 51°28' E 003°43'0 0.0
2016-Sep-26 19:33N 51°28' E 003°43'0 0.0
2016-Sep-26 15:31N 51°28' E 003°43'0 0.0
2016-Sep-26 13:33N 51°28' E 003°43'0 0.0
2016-Sep-26 11:32N 51°28' E 003°43'0 0.0
2016-Sep-26 08:28N 51°28' E 003°43'0 0.0
2016-Sep-26 02:29N 51°28' E 003°43'0 0.0
2016-Sep-26 01:31N 51°28' E 003°43'0 0.0
2016-Sep-26 00:31N 51°28' E 003°43'0 0.0
2016-Sep-25 21:29N 51°28' E 003°43'0 0.0
2016-Sep-25 17:31N 51°28' E 003°43'0 0.0
2016-Sep-25 16:33N 51°28' E 003°43'0 0.0
2016-Sep-25 15:33N 51°28' E 003°43'0 0.0
2016-Sep-25 14:32N 51°28' E 003°43'1 0.3
2016-Sep-25 12:33N 51°28' E 003°42'1111.0
2016-Sep-25 11:33N 51°25' E 003°25'1515.4
2016-Sep-25 10:33N 51°24' E 003°01'1312.6
2016-Sep-25 09:34N 51°22' E 002°41'10 5.0
2016-Sep-25 07:34N 51°21' E 002°25'29 9.6
2016-Sep-25 04:34N 51°05' E 001°46'34 8.6
2016-Sep-25 00:33N 50°38' E 001°14'25 8.3
2016-Sep-24 21:32N 50°25' E 000°40'17 8.4
2016-Sep-24 19:34N 50°20' E 000°15'9 8.7
2016-Sep-24 18:34N 50°18' E 000°02'9 9.2
2016-Sep-24 17:34N 50°16' W 000°12'10 9.7
2016-Sep-24 16:33N 50°13' W 000°27'2210.8
2016-Sep-24 14:34N 50°07' W 000°59'2712.0
2016-Sep-24 12:21N 50°02' W 001°40'3110.3
2016-Sep-24 09:19N 49°55' W 002°27'53 9.2
2016-Sep-24 03:34N 49°39' W 003°46'9 9.4
2016-Sep-24 02:34N 49°38' W 004°00'11 9.9
2016-Sep-24 01:30N 49°34' W 004°15'9 9.4
2016-Sep-24 00:33N 49°30' W 004°28'  
Track history (hours):
 
Tides and Currents Weather Stations Pressure Air Temp Water Temp Dewpoint Dewpoint Depression Visibility Wind Speed Wind Dir Waves Ship Positions

Lena

Last reported at 2016-Sep-28 21:33 UTC. Time now 2016-Sep-28 23:57 UTC.
Position N 51°20' E 002°36'.

Length 152 m; draft 5.7 m.

Type: Ship. MMSI: 304080808.

Date/timePositionNaut miles runAvg speedWind from/ knotsBaromVisibWave heightAir tempDewpointWater temp
2016-Sep-28 21:33N 51°20' E 002°36'7 3.7
2016-Sep-28 19:33N 51°22' E 002°48'3511.3
2016-Sep-28 16:28N 51°28' E 003°43'0 0.0
2016-Sep-28 15:31N 51°28' E 003°43'0 0.0
2016-Sep-28 12:33N 51°28' E 003°43'0 0.0
2016-Sep-28 08:31N 51°28' E 003°43'0 0.0
2016-Sep-28 03:23N 51°28' E 003°43'0 0.0
2016-Sep-28 02:28N 51°28' E 003°43'0 0.0
2016-Sep-28 01:22N 51°28' E 003°43'0 0.0
2016-Sep-27 23:33N 51°28' E 003°43'0 0.0
2016-Sep-27 19:31N 51°28' E 003°43'0 0.0
2016-Sep-27 14:32N 51°28' E 003°43'0 0.0
2016-Sep-27 13:32N 51°28' E 003°43'0 0.0
2016-Sep-27 10:33N 51°28' E 003°43'0 0.0
2016-Sep-27 00:29N 51°28' E 003°43'0 0.0
2016-Sep-26 20:33N 51°28' E 003°43'0 0.0
2016-Sep-26 19:33N 51°28' E 003°43'0 0.0
2016-Sep-26 15:31N 51°28' E 003°43'0 0.0
2016-Sep-26 13:33N 51°28' E 003°43'0 0.0
2016-Sep-26 11:32N 51°28' E 003°43'0 0.0
2016-Sep-26 08:28N 51°28' E 003°43'0 0.0
2016-Sep-26 02:29N 51°28' E 003°43'0 0.0
2016-Sep-26 01:31N 51°28' E 003°43'0 0.0
2016-Sep-26 00:31N 51°28' E 003°43'0 0.0
2016-Sep-25 21:29N 51°28' E 003°43'0 0.0
2016-Sep-25 17:31N 51°28' E 003°43'0 0.0
2016-Sep-25 16:33N 51°28' E 003°43'0 0.0
2016-Sep-25 15:33N 51°28' E 003°43'0 0.0
2016-Sep-25 14:32N 51°28' E 003°43'1 0.3
2016-Sep-25 12:33N 51°28' E 003°42'1111.0
2016-Sep-25 11:33N 51°25' E 003°25'1515.4
2016-Sep-25 10:33N 51°24' E 003°01'1312.6
2016-Sep-25 09:34N 51°22' E 002°41'10 5.0
2016-Sep-25 07:34N 51°21' E 002°25'29 9.6
2016-Sep-25 04:34N 51°05' E 001°46'34 8.6
2016-Sep-25 00:33N 50°38' E 001°14'25 8.3
2016-Sep-24 21:32N 50°25' E 000°40'17 8.4
2016-Sep-24 19:34N 50°20' E 000°15'9 8.7
2016-Sep-24 18:34N 50°18' E 000°02'9 9.2
2016-Sep-24 17:34N 50°16' W 000°12'10 9.7
2016-Sep-24 16:33N 50°13' W 000°27'2210.8
2016-Sep-24 14:34N 50°07' W 000°59'2712.0
2016-Sep-24 12:21N 50°02' W 001°40'3110.3
2016-Sep-24 09:19N 49°55' W 002°27'53 9.2
2016-Sep-24 03:34N 49°39' W 003°46'9 9.4
2016-Sep-24 02:34N 49°38' W 004°00'11 9.9
2016-Sep-24 01:30N 49°34' W 004°15'9 9.4
2016-Sep-24 00:33N 49°30' W 004°28'  

Dump ship's entire track history